Time;durP1;ratioP1;P1;durP2;ratioP2;P2;SDS_P1;SDS_P2;PMS_P1;PMS_P2;Temp;Humidity;BMP_temperature;BMP_pressure;BME280_temperature;BME280_humidity;BME280_pressure;Samples;Min_cycle;Max_cycle;Signal;HPM_P1;HPM_P2
2023/10/28 00:00:59;;;;;;;2.10;1.20;;;14.10;99.90;;;;;;931515;149;27482;-81
2023/10/28 00:03:26;;;;;;;2.55;1.30;;;14.10;99.90;;;;;;931509;149;27474;-73
2023/10/28 00:05:52;;;;;;;2.50;1.47;;;14.10;99.90;;;;;;914627;152;27367;-73
2023/10/28 00:08:19;;;;;;;1.62;1.40;;;14.10;99.90;;;;;;926703;152;27449;-75
2023/10/28 00:10:46;;;;;;;2.20;1.30;;;14.10;99.90;;;;;;931888;149;27414;-74
2023/10/28 00:13:14;;;;;;;2.50;1.30;;;14.10;99.90;;;;;;931094;149;27318;-76
2023/10/28 00:15:39;;;;;;;2.30;1.60;;;14.10;99.90;;;;;;932032;149;27307;-74
2023/10/28 00:18:06;;;;;;;2.60;1.17;;;14.10;99.90;;;;;;933186;150;27512;-74
2023/10/28 00:20:32;;;;;;;3.55;1.42;;;14.10;99.90;;;;;;932391;151;27362;-74
2023/10/28 00:22:59;;;;;;;3.73;1.40;;;14.10;99.90;;;;;;932629;150;27298;-76
2023/10/28 00:25:34;;;;;;;3.22;1.40;;;14.10;99.90;;;;;;933146;151;27351;-73
2023/10/28 00:28:01;;;;;;;2.58;1.32;;;14.10;99.90;;;;;;933505;150;27354;-73
2023/10/28 00:30:27;;;;;;;4.60;1.57;;;14.10;99.90;;;;;;930686;151;27439;-73
2023/10/28 00:32:54;;;;;;;2.47;1.50;;;14.10;99.90;;;;;;909653;154;27438;-74
2023/10/28 00:35:23;;;;;;;1.98;1.40;;;14.10;99.90;;;;;;925282;152;27365;-74
2023/10/28 00:37:50;;;;;;;2.60;1.22;;;14.10;99.90;;;;;;921685;152;27488;-74
2023/10/28 00:40:17;;;;;;;1.45;1.27;;;14.10;99.90;;;;;;923526;152;27319;-77
2023/10/28 00:42:45;;;;;;;1.42;1.22;;;14.10;99.90;;;;;;924727;151;27449;-76
2023/10/28 00:45:13;;;;;;;1.70;1.40;;;14.10;99.90;;;;;;922685;151;27437;-74
2023/10/28 00:47:36;;;;;;;2.27;1.25;;;14.10;99.90;;;;;;926344;151;27310;-74
2023/10/28 00:50:03;;;;;;;1.90;1.10;;;14.00;99.90;;;;;;909029;154;27452;-74
2023/10/28 00:52:29;;;;;;;1.47;1.20;;;14.10;99.90;;;;;;923297;151;27282;-77
2023/10/28 00:54:56;;;;;;;1.47;1.20;;;14.00;99.90;;;;;;920889;152;27464;-73
2023/10/28 00:57:22;;;;;;;1.10;0.70;;;14.00;99.90;;;;;;929838;151;27442;-74
2023/10/28 00:59:49;;;;;;;1.72;1.07;;;14.00;99.90;;;;;;918691;153;27411;-77
2023/10/28 01:02:17;;;;;;;1.92;1.30;;;14.00;99.90;;;;;;920722;153;27390;-74
2023/10/28 01:04:42;;;;;;;1.50;1.20;;;14.00;99.90;;;;;;918991;153;27359;-77
2023/10/28 01:07:09;;;;;;;1.57;1.20;;;14.00;99.90;;;;;;920218;153;28757;-77
2023/10/28 01:09:45;;;;;;;1.40;1.12;;;13.90;99.90;;;;;;921865;153;27467;-77
2023/10/28 01:12:13;;;;;;;4.62;1.50;;;13.90;99.90;;;;;;919370;153;27497;-79
2023/10/28 01:14:37;;;;;;;1.50;1.17;;;13.90;99.90;;;;;;918652;153;27412;-82
2023/10/28 01:17:04;;;;;;;1.00;1.00;;;13.90;99.90;;;;;;919286;153;27489;-83
2023/10/28 01:19:31;;;;;;;2.15;1.20;;;13.90;99.90;;;;;;921071;153;27344;-83
2023/10/28 01:21:57;;;;;;;1.20;1.10;;;13.90;99.90;;;;;;919762;153;27328;-83
2023/10/28 01:24:24;;;;;;;3.50;1.45;;;13.90;99.90;;;;;;921073;153;27495;-82
2023/10/28 01:26:50;;;;;;;2.30;1.25;;;13.90;99.90;;;;;;918905;153;27424;-83
2023/10/28 01:29:17;;;;;;;1.40;1.10;;;13.90;99.90;;;;;;919884;153;28530;-83
2023/10/28 01:31:43;;;;;;;2.02;1.20;;;13.90;99.90;;;;;;922484;153;27418;-83
2023/10/28 01:34:10;;;;;;;2.00;1.50;;;13.90;99.90;;;;;;925195;154;27360;-83
2023/10/28 01:36:37;;;;;;;2.33;1.40;;;13.90;99.90;;;;;;930545;151;27768;-83
2023/10/28 01:39:04;;;;;;;1.40;1.30;;;14.00;99.90;;;;;;932016;152;27409;-82
2023/10/28 01:41:30;;;;;;;1.47;1.05;;;14.00;99.90;;;;;;931819;152;27419;-78
2023/10/28 01:43:56;;;;;;;1.45;1.35;;;13.90;99.90;;;;;;931466;151;27414;-83
2023/10/28 01:46:23;;;;;;;3.90;1.67;;;14.00;99.90;;;;;;932540;152;27411;-83
2023/10/28 01:48:50;;;;;;;1.60;0.90;;;14.00;99.90;;;;;;931399;152;27350;-83
2023/10/28 01:51:16;;;;;;;2.67;1.20;;;14.00;99.90;;;;;;931752;151;27295;-83
2023/10/28 01:53:43;;;;;;;2.70;1.22;;;14.00;99.90;;;;;;931553;151;27341;-83
2023/10/28 01:56:10;;;;;;;1.25;1.10;;;14.00;99.90;;;;;;930862;152;27458;-83
2023/10/28 01:58:36;;;;;;;1.65;1.10;;;14.00;99.90;;;;;;931593;151;27344;-83
2023/10/28 02:01:03;;;;;;;3.05;1.10;;;14.00;99.90;;;;;;932195;151;27447;-82
2023/10/28 02:03:30;;;;;;;1.37;0.95;;;14.00;99.90;;;;;;931676;151;27326;-82
2023/10/28 02:05:56;;;;;;;1.10;1.10;;;14.00;99.90;;;;;;932045;152;27320;-84
2023/10/28 02:08:22;;;;;;;0.95;0.90;;;14.00;99.90;;;;;;931764;152;27372;-77
2023/10/28 02:10:49;;;;;;;0.82;0.82;;;14.00;99.90;;;;;;931585;152;27469;-79
2023/10/28 02:13:15;;;;;;;0.80;0.70;;;14.00;99.90;;;;;;931693;151;27439;-78
2023/10/28 02:15:44;;;;;;;1.72;1.05;;;14.00;99.90;;;;;;931769;152;27386;-78
2023/10/28 02:18:09;;;;;;;0.85;0.70;;;14.00;99.90;;;;;;931421;152;27350;-79
2023/10/28 02:20:36;;;;;;;0.90;0.90;;;14.00;99.90;;;;;;931686;151;27381;-78
2023/10/28 02:23:02;;;;;;;0.65;0.65;;;14.00;99.90;;;;;;932132;151;27279;-79
2023/10/28 02:25:28;;;;;;;0.98;0.85;;;14.00;99.90;;;;;;932006;152;27401;-79
2023/10/28 02:27:56;;;;;;;0.70;0.70;;;14.00;99.90;;;;;;930243;152;27369;-78
2023/10/28 02:30:22;;;;;;;1.63;0.53;;;14.00;99.90;;;;;;931372;152;27409;-78
2023/10/28 02:32:48;;;;;;;1.15;0.68;;;14.00;99.90;;;;;;928464;151;27336;-78
2023/10/28 02:35:15;;;;;;;1.60;0.60;;;13.90;99.90;;;;;;927996;152;27442;-79
2023/10/28 02:37:41;;;;;;;1.02;0.70;;;13.90;99.90;;;;;;928222;151;27351;-78
2023/10/28 02:40:08;;;;;;;0.60;0.60;;;13.90;99.90;;;;;;927819;152;27383;-78
2023/10/28 02:42:35;;;;;;;0.72;0.68;;;13.90;99.90;;;;;;927603;151;27508;-78
2023/10/28 02:45:01;;;;;;;2.10;0.80;;;13.90;99.90;;;;;;927467;151;27461;-78
2023/10/28 02:47:28;;;;;;;0.70;0.70;;;13.90;99.90;;;;;;927927;152;27857;-78
2023/10/28 02:49:54;;;;;;;0.60;0.60;;;13.90;99.90;;;;;;926753;152;27329;-78
2023/10/28 02:52:21;;;;;;;0.60;0.57;;;13.80;99.90;;;;;;928209;152;28447;-78
2023/10/28 02:54:48;;;;;;;1.60;0.70;;;13.80;99.90;;;;;;927347;151;27359;-78
2023/10/28 02:57:14;;;;;;;1.05;0.53;;;13.80;99.90;;;;;;928446;151;27792;-78
2023/10/28 02:59:41;;;;;;;0.50;0.50;;;13.80;99.90;;;;;;927392;151;27300;-78
2023/10/28 03:02:07;;;;;;;0.50;0.50;;;13.70;99.90;;;;;;927315;152;27387;-78
2023/10/28 03:04:34;;;;;;;3.25;0.78;;;13.70;99.90;;;;;;927491;151;27334;-78
2023/10/28 03:07:00;;;;;;;0.47;0.47;;;13.70;99.90;;;;;;928005;152;27311;-78
2023/10/28 03:09:27;;;;;;;0.70;0.70;;;13.70;99.90;;;;;;928445;151;27334;-79
2023/10/28 03:11:54;;;;;;;0.60;0.60;;;13.70;99.90;;;;;;927469;151;28557;-78
2023/10/28 03:14:20;;;;;;;0.50;0.50;;;13.70;99.90;;;;;;927782;152;27480;-79
2023/10/28 03:16:47;;;;;;;0.55;0.55;;;13.70;99.90;;;;;;927438;152;27387;-78
2023/10/28 03:19:13;;;;;;;0.50;0.50;;;13.60;99.90;;;;;;927200;152;27343;-79
2023/10/28 03:21:40;;;;;;;0.70;0.70;;;13.60;99.90;;;;;;927331;151;27315;-79
2023/10/28 03:24:07;;;;;;;3.08;0.50;;;13.60;99.90;;;;;;927868;152;27421;-83
2023/10/28 03:26:33;;;;;;;0.57;0.57;;;13.60;99.90;;;;;;927268;152;27371;-83
2023/10/28 03:29:00;;;;;;;1.82;0.70;;;13.60;99.90;;;;;;927910;151;27456;-82
2023/10/28 03:31:26;;;;;;;0.60;0.60;;;13.60;99.90;;;;;;928077;151;27424;-84
2023/10/28 03:33:54;;;;;;;0.95;0.95;;;13.60;99.90;;;;;;927733;152;27349;-77
2023/10/28 03:36:20;;;;;;;2.13;0.93;;;13.60;99.90;;;;;;927570;152;27819;-75
2023/10/28 03:38:46;;;;;;;1.95;0.70;;;13.50;99.90;;;;;;927465;151;27402;-75
2023/10/28 03:41:13;;;;;;;1.42;0.70;;;13.50;99.90;;;;;;927817;151;27394;-76
2023/10/28 03:43:41;;;;;;;1.02;0.62;;;13.50;99.90;;;;;;927208;151;27400;-75
2023/10/28 03:46:06;;;;;;;0.50;0.50;;;13.40;99.90;;;;;;927869;152;27506;-76
2023/10/28 03:48:33;;;;;;;0.67;0.67;;;13.40;99.90;;;;;;927587;151;27331;-76
2023/10/28 03:51:00;;;;;;;0.98;0.85;;;13.40;99.90;;;;;;927900;152;27400;-76
2023/10/28 03:53:26;;;;;;;1.70;1.20;;;13.40;99.90;;;;;;927875;152;27506;-79
2023/10/28 03:55:52;;;;;;;2.37;0.93;;;13.30;99.90;;;;;;927865;151;27394;-75
2023/10/28 03:58:19;;;;;;;1.22;0.93;;;13.30;99.90;;;;;;927720;152;27393;-78
2023/10/28 04:00:46;;;;;;;3.15;0.80;;;13.30;99.90;;;;;;928175;151;27363;-75
2023/10/28 04:03:12;;;;;;;2.47;1.10;;;13.20;99.90;;;;;;927529;152;27479;-75
2023/10/28 04:05:39;;;;;;;0.82;0.62;;;13.20;99.90;;;;;;927616;152;27296;-75
2023/10/28 04:08:05;;;;;;;1.17;1.05;;;13.20;99.90;;;;;;927735;152;27421;-76
2023/10/28 04:10:32;;;;;;;2.00;0.83;;;13.20;99.90;;;;;;927782;151;27322;-78
2023/10/28 04:12:59;;;;;;;0.90;0.90;;;13.20;99.90;;;;;;927430;152;27428;-78
2023/10/28 04:15:25;;;;;;;2.20;1.20;;;13.20;99.90;;;;;;927646;151;27330;-77
2023/10/28 04:17:52;;;;;;;1.57;0.93;;;13.20;99.90;;;;;;927880;151;27363;-77
2023/10/28 04:20:18;;;;;;;2.03;1.23;;;13.20;99.90;;;;;;927652;151;27394;-79
2023/10/28 04:22:45;;;;;;;0.88;0.88;;;13.20;99.90;;;;;;927846;152;27811;-75
2023/10/28 04:25:12;;;;;;;1.97;1.07;;;13.20;99.90;;;;;;927161;151;27343;-76
2023/10/28 04:27:38;;;;;;;1.87;0.80;;;13.20;99.90;;;;;;927534;151;27328;-75
2023/10/28 04:30:05;;;;;;;1.75;1.02;;;13.20;99.90;;;;;;927621;152;27426;-76
2023/10/28 04:32:31;;;;;;;0.87;0.80;;;13.30;99.90;;;;;;928543;152;27417;-75
2023/10/28 04:34:58;;;;;;;3.60;1.07;;;13.30;99.90;;;;;;932091;151;27315;-82
2023/10/28 04:37:24;;;;;;;1.92;0.93;;;13.30;99.90;;;;;;932058;152;27322;-82
2023/10/28 04:39:51;;;;;;;2.53;1.10;;;13.30;99.90;;;;;;931610;151;27331;-82
2023/10/28 04:42:18;;;;;;;3.43;0.80;;;13.30;99.90;;;;;;931692;152;27507;-81
2023/10/28 04:44:44;;;;;;;0.90;0.90;;;13.30;99.90;;;;;;931770;151;27402;-78
2023/10/28 04:47:11;;;;;;;0.93;0.80;;;13.30;99.90;;;;;;931705;151;27454;-78
2023/10/28 04:49:39;;;;;;;0.90;0.80;;;13.30;99.90;;;;;;931085;151;27474;-78
2023/10/28 04:52:04;;;;;;;0.60;0.60;;;13.30;99.90;;;;;;930115;152;27365;-78
2023/10/28 04:54:30;;;;;;;2.77;0.95;;;13.30;99.90;;;;;;931628;152;27334;-77
2023/10/28 04:56:59;;;;;;;1.45;0.70;;;13.40;99.90;;;;;;932054;152;27436;-78
2023/10/28 04:59:24;;;;;;;2.55;1.00;;;13.40;99.90;;;;;;931384;152;27378;-77
2023/10/28 05:01:51;;;;;;;1.87;1.03;;;13.40;99.90;;;;;;931563;151;27498;-78
2023/10/28 05:04:18;;;;;;;4.30;1.10;;;13.30;99.90;;;;;;931147;152;27430;-78
2023/10/28 05:06:43;;;;;;;1.80;1.07;;;13.40;99.90;;;;;;930641;151;27303;-78
2023/10/28 05:09:10;;;;;;;1.20;1.00;;;13.30;99.90;;;;;;931030;151;27302;-78
2023/10/28 05:11:37;;;;;;;1.15;0.80;;;13.40;99.90;;;;;;931905;151;27414;-78
2023/10/28 05:14:03;;;;;;;2.47;1.12;;;13.40;99.90;;;;;;931633;151;27486;-79
2023/10/28 05:16:30;;;;;;;1.72;1.10;;;13.40;99.90;;;;;;919378;152;27335;-78
2023/10/28 05:18:56;;;;;;;1.35;1.00;;;13.40;99.90;;;;;;934044;151;27376;-78
2023/10/28 05:21:23;;;;;;;3.77;1.47;;;13.40;99.90;;;;;;933487;151;27304;-78
2023/10/28 05:23:49;;;;;;;0.90;0.90;;;13.40;99.90;;;;;;920937;153;27341;-78
2023/10/28 05:26:16;;;;;;;1.37;1.23;;;13.40;99.90;;;;;;935346;150;27444;-77
2023/10/28 05:28:43;;;;;;;2.30;1.20;;;13.40;99.90;;;;;;907272;152;27396;-78
2023/10/28 05:31:10;;;;;;;2.92;1.07;;;13.40;99.90;;;;;;935375;151;27364;-79
2023/10/28 05:33:36;;;;;;;2.00;1.20;;;13.30;99.90;;;;;;924590;152;27471;-77
2023/10/28 05:36:03;;;;;;;2.35;1.07;;;13.30;99.90;;;;;;939183;151;27428;-78
2023/10/28 05:38:29;;;;;;;3.55;1.22;;;13.30;99.90;;;;;;920623;153;27381;-78
2023/10/28 05:40:56;;;;;;;1.52;1.27;;;13.20;99.90;;;;;;935507;152;27451;-77
2023/10/28 05:43:22;;;;;;;1.45;1.00;;;13.20;99.90;;;;;;935187;152;27498;-82
2023/10/28 05:45:49;;;;;;;2.00;1.27;;;13.20;99.90;;;;;;932189;151;27337;-82
2023/10/28 05:48:17;;;;;;;1.57;1.00;;;13.20;99.90;;;;;;922768;154;27420;-83
2023/10/28 05:50:42;;;;;;;1.42;1.32;;;13.20;99.90;;;;;;924644;152;27336;-82
2023/10/28 05:53:09;;;;;;;1.85;0.88;;;13.20;99.90;;;;;;923175;155;27466;-77
2023/10/28 05:55:35;;;;;;;1.42;1.15;;;13.20;99.90;;;;;;924385;152;27420;-76
2023/10/28 05:58:02;;;;;;;2.55;1.37;;;13.20;99.90;;;;;;923596;152;27401;-77
2023/10/28 06:00:29;;;;;;;1.90;1.27;;;13.30;99.90;;;;;;939857;151;27344;-76
2023/10/28 06:02:55;;;;;;;2.20;1.47;;;13.30;99.90;;;;;;935213;151;27487;-76
2023/10/28 06:05:23;;;;;;;3.17;1.40;;;13.30;99.90;;;;;;932695;151;27286;-75
2023/10/28 06:07:49;;;;;;;3.42;1.67;;;13.30;99.90;;;;;;934454;150;27381;-73
2023/10/28 06:10:15;;;;;;;1.75;1.30;;;13.40;99.90;;;;;;923324;154;27400;-76
2023/10/28 06:12:41;;;;;;;2.80;1.17;;;13.40;99.90;;;;;;922493;152;27461;-74
2023/10/28 06:15:08;;;;;;;2.58;1.20;;;13.50;99.90;;;;;;935896;151;27321;-74
2023/10/28 06:17:38;;;;;;;1.57;1.37;;;13.50;99.90;;;;;;920832;153;27432;-74
2023/10/28 06:20:05;;;;;;;3.40;1.47;;;13.50;99.90;;;;;;924281;155;27316;-76
2023/10/28 06:22:32;;;;;;;3.87;1.40;;;13.50;99.90;;;;;;924075;155;27392;-75
2023/10/28 06:24:57;;;;;;;4.75;1.57;;;13.60;99.90;;;;;;931006;151;27298;-75
2023/10/28 06:27:24;;;;;;;1.52;1.42;;;13.60;99.90;;;;;;920870;153;27467;-74
2023/10/28 06:29:51;;;;;;;5.15;1.40;;;13.70;99.90;;;;;;920312;153;27451;-75
2023/10/28 06:32:17;;;;;;;3.58;1.40;;;13.70;99.90;;;;;;935871;151;27321;-74
2023/10/28 06:34:44;;;;;;;2.20;1.60;;;13.70;99.90;;;;;;927190;151;27426;-76
2023/10/28 06:37:10;;;;;;;4.20;2.37;;;13.70;99.90;;;;;;916869;153;27490;-74
2023/10/28 06:39:37;;;;;;;2.55;1.42;;;13.70;99.90;;;;;;910050;154;27512;-74
2023/10/28 06:42:04;;;;;;;4.40;1.75;;;13.80;99.90;;;;;;930314;151;27415;-76
2023/10/28 06:44:32;;;;;;;3.02;1.65;;;13.80;99.90;;;;;;929000;151;27421;-75
2023/10/28 06:46:57;;;;;;;2.17;1.42;;;13.80;99.90;;;;;;928172;151;27463;-74
2023/10/28 06:49:23;;;;;;;3.70;1.65;;;13.80;99.90;;;;;;928333;151;27433;-74
2023/10/28 06:51:50;;;;;;;1.22;1.10;;;13.70;99.90;;;;;;928833;151;27604;-73
2023/10/28 06:54:18;;;;;;;2.58;1.37;;;13.70;99.90;;;;;;928795;151;27445;-83
2023/10/28 06:56:43;;;;;;;2.25;1.40;;;13.80;99.90;;;;;;929043;151;27307;-82
2023/10/28 06:59:10;;;;;;;2.05;1.45;;;13.80;99.90;;;;;;928869;151;27351;-81
2023/10/28 07:01:36;;;;;;;3.95;1.50;;;13.80;99.90;;;;;;929196;151;27295;-82
2023/10/28 07:04:03;;;;;;;1.90;1.25;;;13.80;99.90;;;;;;928356;151;27265;-77
2023/10/28 07:06:31;;;;;;;3.10;1.40;;;13.80;99.90;;;;;;928516;151;27347;-76
2023/10/28 07:08:57;;;;;;;2.80;1.37;;;13.80;99.90;;;;;;927435;151;27464;-77
2023/10/28 07:11:23;;;;;;;4.03;2.05;;;13.90;99.90;;;;;;928357;151;27425;-77
2023/10/28 07:13:49;;;;;;;3.27;1.70;;;13.90;99.90;;;;;;928931;151;27357;-77
2023/10/28 07:16:17;;;;;;;2.02;1.55;;;13.90;99.90;;;;;;929162;151;27476;-76
2023/10/28 07:18:42;;;;;;;1.82;1.30;;;13.90;99.90;;;;;;929528;151;27388;-77
2023/10/28 07:21:09;;;;;;;3.27;1.30;;;14.00;99.90;;;;;;928678;151;27364;-77
2023/10/28 07:23:36;;;;;;;3.12;1.22;;;14.00;99.90;;;;;;928210;151;27425;-77
2023/10/28 07:26:02;;;;;;;4.40;1.65;;;14.10;99.90;;;;;;929907;151;27417;-77
2023/10/28 07:28:35;;;;;;;1.45;1.30;;;14.10;99.90;;;;;;929567;151;27268;-76
2023/10/28 07:31:01;;;;;;;3.85;2.27;;;14.20;99.90;;;;;;906630;154;27527;-77
2023/10/28 07:33:28;;;;;;;5.95;2.80;;;14.20;99.90;;;;;;916306;154;27441;-77
2023/10/28 07:35:54;;;;;;;6.33;2.80;;;14.30;99.90;;;;;;931684;150;28445;-77
2023/10/28 07:38:21;;;;;;;3.22;1.47;;;14.40;99.90;;;;;;953701;147;27291;-77
2023/10/28 07:40:47;;;;;;;2.37;1.30;;;14.50;99.90;;;;;;932460;150;27758;-77
2023/10/28 07:43:14;;;;;;;3.30;1.60;;;14.50;99.90;;;;;;947686;148;27405;-77
2023/10/28 07:45:41;;;;;;;3.35;1.50;;;14.60;99.90;;;;;;935863;150;28215;-76
2023/10/28 07:48:07;;;;;;;3.22;1.30;;;14.70;99.90;;;;;;953920;147;27310;-77
2023/10/28 07:50:34;;;;;;;3.10;1.25;;;14.80;99.90;;;;;;955489;147;27294;-77
2023/10/28 07:53:00;;;;;;;4.03;1.40;;;14.80;99.90;;;;;;953995;147;27372;-77
2023/10/28 07:55:27;;;;;;;4.08;1.32;;;14.90;99.90;;;;;;936757;150;27456;-76
2023/10/28 07:57:54;;;;;;;1.52;1.07;;;15.00;99.90;;;;;;936133;150;27400;-77
2023/10/28 08:00:20;;;;;;;2.08;1.47;;;15.10;99.90;;;;;;953896;148;27477;-77
2023/10/28 08:02:47;;;;;;;4.30;1.35;;;15.10;99.90;;;;;;952939;147;27335;-82
2023/10/28 08:05:13;;;;;;;2.20;1.12;;;15.20;99.90;;;;;;953443;147;27316;-78
2023/10/28 08:07:40;;;;;;;3.55;1.57;;;15.20;99.90;;;;;;953714;147;27378;-78
2023/10/28 08:10:06;;;;;;;2.25;1.20;;;15.20;99.90;;;;;;953521;147;27317;-78
2023/10/28 08:12:34;;;;;;;2.60;1.00;;;15.30;99.90;;;;;;953312;147;27306;-78
2023/10/28 08:15:00;;;;;;;4.50;1.40;;;15.30;99.90;;;;;;952961;147;27363;-74
2023/10/28 08:17:26;;;;;;;2.17;1.40;;;15.30;99.90;;;;;;952763;147;27926;-77
2023/10/28 08:19:53;;;;;;;3.67;1.67;;;15.40;99.90;;;;;;935327;150;27380;-75
2023/10/28 08:22:19;;;;;;;2.42;1.42;;;15.40;99.90;;;;;;935945;150;27331;-74
2023/10/28 08:24:46;;;;;;;2.42;1.30;;;15.40;99.90;;;;;;936472;150;27368;-74
2023/10/28 08:27:13;;;;;;;3.00;1.20;;;15.40;99.90;;;;;;936915;150;27435;-74
2023/10/28 08:29:39;;;;;;;2.12;1.60;;;15.50;99.90;;;;;;954062;147;27439;-75
2023/10/28 08:32:06;;;;;;;2.08;1.32;;;15.50;99.90;;;;;;954290;147;27339;-75
2023/10/28 08:34:33;;;;;;;2.08;1.22;;;15.60;99.90;;;;;;953463;148;27417;-74
2023/10/28 08:36:59;;;;;;;3.67;1.22;;;15.60;99.90;;;;;;902902;151;27472;-74
2023/10/28 08:39:26;;;;;;;2.22;1.60;;;15.60;99.90;;;;;;915162;150;27344;-77
2023/10/28 08:41:52;;;;;;;2.98;1.55;;;15.70;99.90;;;;;;938151;148;27391;-74
2023/10/28 08:44:20;;;;;;;3.80;1.37;;;15.70;99.90;;;;;;908846;152;27482;-74
2023/10/28 08:46:45;;;;;;;4.33;1.42;;;15.70;99.90;;;;;;937797;148;27345;-79
2023/10/28 08:49:12;;;;;;;2.25;1.35;;;15.70;99.90;;;;;;936245;148;27348;-74
2023/10/28 08:51:39;;;;;;;1.42;1.00;;;15.70;99.90;;;;;;937592;148;27386;-75
2023/10/28 09:47:07;;;;;;;3.72;1.42;;;16.30;99.90;;;;;;995110;143;27310;-79
2023/10/28 09:49:34;;;;;;;2.40;1.35;;;16.30;99.90;;;;;;991110;143;27714;-79
2023/10/28 09:52:00;;;;;;;3.08;1.22;;;16.40;99.90;;;;;;985098;141;27252;-80
2023/10/28 09:54:35;;;;;;;1.98;1.20;;;16.40;99.90;;;;;;982231;141;27247;-79
2023/10/28 09:57:01;;;;;;;1.22;1.07;;;16.50;99.90;;;;;;983335;141;27248;-79
2023/10/28 09:59:34;;;;;;;3.35;1.27;;;16.60;99.90;;;;;;983047;141;27338;-79
2023/10/28 10:02:03;;;;;;;1.25;0.95;;;16.70;99.90;;;;;;984656;141;27361;-79
2023/10/28 10:04:38;;;;;;;3.52;1.42;;;16.80;99.90;;;;;;982577;141;27407;-79
2023/10/28 10:07:05;;;;;;;2.83;1.22;;;17.00;99.90;;;;;;981913;141;27721;-78
2023/10/28 10:09:43;;;;;;;4.80;1.37;;;17.20;99.90;;;;;;981735;141;27251;-78
2023/10/28 10:12:12;;;;;;;3.15;1.40;;;17.40;99.90;;;;;;981033;142;27304;-79
2023/10/28 10:14:39;;;;;;;3.10;1.52;;;17.60;99.90;;;;;;980362;141;27292;-79
2023/10/28 10:17:09;;;;;;;4.03;1.40;;;17.80;99.90;;;;;;981193;141;27285;-79
2023/10/28 10:19:38;;;;;;;2.70;1.47;;;18.00;99.90;;;;;;979361;141;27404;-79
2023/10/28 10:22:07;;;;;;;2.65;1.30;;;18.30;99.90;;;;;;982164;141;27181;-79
2023/10/28 10:24:33;;;;;;;10.08;2.12;;;18.40;99.90;;;;;;980650;141;27308;-79
2023/10/28 10:27:00;;;;;;;5.03;1.75;;;18.60;99.90;;;;;;981614;141;27253;-78
2023/10/28 10:29:29;;;;;;;2.22;1.30;;;18.70;99.90;;;;;;980329;141;27570;-79
2023/10/28 10:31:56;;;;;;;3.95;1.60;;;18.80;99.90;;;;;;980624;141;27251;-79
2023/10/28 10:34:36;;;;;;;2.30;1.30;;;18.70;99.90;;;;;;983804;141;27186;-78
2023/10/28 10:37:01;;;;;;;2.42;1.42;;;18.80;99.90;;;;;;981182;143;27702;-79
2023/10/28 10:39:28;;;;;;;2.60;1.37;;;18.70;99.90;;;;;;981545;141;27248;-78
2023/10/28 10:41:54;;;;;;;4.90;1.35;;;18.70;99.90;;;;;;980384;144;27186;-79
2023/10/28 10:44:24;;;;;;;2.35;1.25;;;18.60;99.90;;;;;;981304;141;27170;-79
2023/10/28 10:46:50;;;;;;;3.58;1.85;;;18.50;99.90;;;;;;975507;146;27308;-78
2023/10/28 10:49:17;;;;;;;3.83;1.80;;;18.50;99.90;;;;;;981189;143;27205;-79
2023/10/28 10:51:46;;;;;;;4.37;1.87;;;18.40;99.90;;;;;;981484;143;27349;-78
2023/10/28 10:54:10;;;;;;;4.50;2.52;;;18.30;99.90;;;;;;979623;143;27278;-76
2023/10/28 10:56:37;;;;;;;5.05;2.20;;;18.30;99.90;;;;;;980836;145;27356;-78
2023/10/28 10:59:03;;;;;;;3.55;1.45;;;18.20;99.90;;;;;;981199;146;27245;-78
2023/10/28 11:01:30;;;;;;;2.33;1.30;;;18.20;99.90;;;;;;979348;143;27249;-79
2023/10/28 11:03:57;;;;;;;5.92;1.80;;;18.10;99.90;;;;;;980250;143;27322;-78
2023/10/28 11:06:23;;;;;;;3.15;1.40;;;18.10;99.90;;;;;;980214;143;27360;-78
2023/10/28 11:08:50;;;;;;;2.08;1.15;;;18.10;99.90;;;;;;979421;143;27248;-79
2023/10/28 11:11:16;;;;;;;1.98;1.27;;;18.00;99.90;;;;;;980374;143;27286;-79
2023/10/28 11:13:44;;;;;;;2.15;1.50;;;18.00;99.90;;;;;;979288;144;27351;-78
2023/10/28 11:16:19;;;;;;;3.75;1.40;;;18.00;99.90;;;;;;980384;145;27279;-79
2023/10/28 11:18:45;;;;;;;3.00;1.60;;;17.90;99.90;;;;;;979429;146;27273;-78
2023/10/28 11:21:11;;;;;;;4.50;1.42;;;17.90;99.90;;;;;;978308;143;27266;-78
2023/10/28 11:23:38;;;;;;;1.67;1.47;;;17.90;99.90;;;;;;978718;143;27289;-78
2023/10/28 11:26:05;;;;;;;3.20;1.55;;;17.80;99.80;;;;;;978265;143;27379;-79
2023/10/28 11:28:32;;;;;;;3.05;1.55;;;17.80;99.90;;;;;;980851;143;27248;-78
2023/10/28 11:30:58;;;;;;;2.27;1.30;;;17.80;99.90;;;;;;980652;143;27287;-78
2023/10/28 11:33:24;;;;;;;5.75;1.52;;;17.80;99.90;;;;;;981656;146;27337;-78
2023/10/28 11:35:52;;;;;;;2.37;1.30;;;17.80;99.90;;;;;;979797;144;27278;-80
2023/10/28 11:38:18;;;;;;;2.37;1.27;;;17.80;99.90;;;;;;976640;143;27606;-79
2023/10/28 11:40:44;;;;;;;2.98;1.50;;;17.80;99.90;;;;;;978869;143;27404;-78
2023/10/28 11:43:11;;;;;;;3.65;2.08;;;17.90;99.90;;;;;;979130;143;27275;-78
2023/10/28 11:45:37;;;;;;;2.37;1.20;;;18.00;99.90;;;;;;979444;144;27314;-78
2023/10/28 11:48:05;;;;;;;3.75;1.50;;;18.00;99.90;;;;;;977308;145;27320;-79
2023/10/28 11:50:31;;;;;;;4.15;1.80;;;18.10;99.90;;;;;;977834;143;27256;-80
2023/10/28 11:52:57;;;;;;;2.87;1.47;;;18.20;99.90;;;;;;979904;143;27291;-79
2023/10/28 11:55:24;;;;;;;1.90;1.15;;;18.20;99.90;;;;;;980329;143;27304;-79
2023/10/28 11:57:50;;;;;;;5.10;1.65;;;18.30;99.90;;;;;;978022;143;27357;-79
2023/10/28 12:00:17;;;;;;;4.40;1.77;;;18.30;99.90;;;;;;937861;149;27343;-78
2023/10/28 12:02:43;;;;;;;3.80;1.60;;;18.30;99.70;;;;;;952858;147;27326;-79
2023/10/28 12:05:10;;;;;;;3.77;1.62;;;18.30;98.90;;;;;;953292;149;27290;-75
2023/10/28 12:07:37;;;;;;;2.52;1.35;;;18.30;98.90;;;;;;980437;143;28280;-74
2023/10/28 12:10:06;;;;;;;3.30;1.37;;;18.30;98.80;;;;;;980344;143;27688;-77
2023/10/28 12:12:30;;;;;;;4.08;1.80;;;18.30;98.60;;;;;;938173;149;27364;-78
2023/10/28 12:14:57;;;;;;;2.10;1.25;;;18.30;98.50;;;;;;979449;143;27356;-76
2023/10/28 12:17:23;;;;;;;3.83;1.75;;;18.30;98.30;;;;;;979778;144;27728;-77
2023/10/28 12:19:50;;;;;;;2.98;1.40;;;18.20;98.00;;;;;;979752;143;27185;-76
2023/10/28 12:22:17;;;;;;;2.83;1.40;;;18.20;98.10;;;;;;980770;144;27279;-76
2023/10/28 12:24:43;;;;;;;6.10;2.20;;;18.20;98.40;;;;;;980390;144;27269;-79
2023/10/28 12:27:09;;;;;;;3.20;1.60;;;18.20;98.20;;;;;;937891;150;27448;-78
2023/10/28 12:29:36;;;;;;;2.98;1.32;;;18.20;97.90;;;;;;978524;144;27249;-76
2023/10/28 12:32:03;;;;;;;3.22;1.90;;;18.20;97.70;;;;;;979904;144;27331;-76
2023/10/28 12:34:29;;;;;;;4.40;1.75;;;18.10;97.30;;;;;;980337;146;27283;-75
2023/10/28 12:36:57;;;;;;;4.83;1.67;;;18.10;97.10;;;;;;978925;143;27272;-75
2023/10/28 12:39:22;;;;;;;4.35;1.65;;;18.10;97.10;;;;;;979426;143;27251;-76
2023/10/28 12:41:49;;;;;;;4.30;1.50;;;18.00;97.20;;;;;;980518;143;27288;-75
2023/10/28 12:44:15;;;;;;;5.47;1.60;;;18.00;97.20;;;;;;981970;144;27380;-75
2023/10/28 12:46:42;;;;;;;5.37;1.80;;;17.90;97.20;;;;;;981617;143;27280;-74
2023/10/28 12:49:09;;;;;;;4.28;1.95;;;17.90;97.20;;;;;;981215;143;27294;-77
2023/10/28 12:51:35;;;;;;;2.85;1.72;;;17.80;97.20;;;;;;981074;146;27225;-78
2023/10/28 12:54:04;;;;;;;5.33;1.85;;;17.80;97.30;;;;;;980304;143;27213;-76
2023/10/28 12:56:31;;;;;;;5.75;1.95;;;17.70;97.30;;;;;;981212;146;27338;-78
2023/10/28 12:58:56;;;;;;;5.95;1.60;;;17.60;97.40;;;;;;981291;143;27312;-74
2023/10/28 13:01:22;;;;;;;4.42;1.60;;;17.60;97.70;;;;;;981114;144;27291;-75
2023/10/28 13:03:48;;;;;;;4.58;1.87;;;17.50;98.00;;;;;;980661;143;27252;-75
2023/10/28 13:06:15;;;;;;;6.08;1.95;;;17.40;98.20;;;;;;981599;143;27243;-76
2023/10/28 13:08:41;;;;;;;5.47;1.70;;;17.30;98.60;;;;;;981614;143;27221;-75
2023/10/28 13:11:08;;;;;;;4.53;1.65;;;17.20;99.00;;;;;;979629;144;27340;-77
2023/10/28 13:13:35;;;;;;;4.35;1.60;;;17.20;99.40;;;;;;982094;144;27369;-75
2023/10/28 13:16:01;;;;;;;4.25;1.60;;;17.10;99.80;;;;;;981097;143;27288;-75
2023/10/28 13:18:28;;;;;;;6.85;1.98;;;17.00;99.90;;;;;;981003;143;27217;-74
2023/10/28 13:20:54;;;;;;;4.83;1.82;;;16.90;99.90;;;;;;982250;143;27258;-74
2023/10/28 13:23:21;;;;;;;4.30;2.00;;;16.80;99.90;;;;;;980772;143;27269;-75
2023/10/28 13:25:47;;;;;;;3.55;1.80;;;16.70;99.90;;;;;;980671;146;27332;-79
2023/10/28 13:28:14;;;;;;;2.15;1.65;;;16.60;99.90;;;;;;981385;143;27756;-76
2023/10/28 13:30:41;;;;;;;6.37;2.00;;;16.50;99.90;;;;;;981419;144;27196;-80
2023/10/28 13:33:07;;;;;;;6.22;2.25;;;16.40;99.90;;;;;;980469;144;27271;-79
2023/10/28 13:35:34;;;;;;;3.90;1.90;;;16.30;99.90;;;;;;980972;143;27268;-77
2023/10/28 13:38:00;;;;;;;5.47;2.30;;;16.20;99.90;;;;;;980293;143;27294;-77